Ypsilanti, MI (48198)

6:23 PM EST on January 29, 2015 (GMT -0500)
Ypsilanti Twp NE | Change Station
CLOSE
Current Station
Personal Weather Station
Location: Ypsilanti, MI
Elevation: 761 ft
Nearby Weather Stations
Active Advisory: Special Statement Active Notice: Public Information Statement

Elev 761 ft 42.26 °N, 83.59 °W | Updated 3 minutes ago

Snow
Snow
31.7 °F
Feels Like 32 °F
N
3.0
Wind Variable Wind from WNW
Gusts 5.0 mph

Today
High -- | Low -- °F
--% Chance of Precip.
Yesterday
High -- | Low -- °F
Precip. -- in
7:50 AM 5:44 PM
Waxing Gibbous, 78% visible
Pressure 29.90 in
Visibility 8.0 miles
Clouds Overcast 1900 ft
Windchill 32 °F
Dew Point 29 °F
Humidity 88%
Rainfall 0.00 in
Snow Depth Not available.
UV 0 out of 12
Pollen .10 out of 12
Air Quality Not available.
Flu Activity Not available.
METAR KYIP 292253Z AUTO 31013KT 8SM OVC019 02/M03 A2988 RMK AO2 SNE04 SLP124 P0000 T00171028 TSNO

More Conditions Fewer Conditions

Pressure 29.90 in
Visibility 8.0 miles
Clouds Overcast 1900 ft
Windchill 32 °F
Dew Point 29 °F
Humidity 88%
Rainfall 0.00 in
Snow Depth Not available.
UV 0 out of 12
Pollen .10 out of 12
Air Quality Not available.
Flu Activity Not available.
METAR KYIP 292253Z AUTO 31013KT 8SM OVC019 02/M03 A2988 RMK AO2 SNE04 SLP124 P0000 T00171028 TSNO

More Conditions Fewer Conditions

10-Day Weather Forecast

Almanac

Astronomy

Jan. 29, 2015 Rise Set
Actual Time
Civil Twilight
Nautical Twilight
Astronomical Twilight
Moon
Length of Visible Light
Length of Day
Tomorrow will be .
, % of the Moon is Illuminated

Today's Extremes

State Highs State Lows

Community

WunderPhotos

Upload Photos

1,791,640 photos uploaded!

WunderBlogs® & News

Nearby

Air Quality

  Air Quality AQ Index Pollutant
Not available.

Snow Depth

Station Depth Elevation

Earthquake Activity

City Distance Mag. Time & Date
Minimum magnitude displayed is 2.5.

Coastal Water Temperatures

Place Temperature

Nearby Weather Stations